Time;durP1;ratioP1;P1;durP2;ratioP2;P2;SDS_P1;SDS_P2;PMS_P1;PMS_P2;Temp;Humidity;BMP_temperature;BMP_pressure;BME280_temperature;BME280_humidity;BME280_pressure;Samples;Min_cycle;Max_cycle;Signal;HPM_P1;HPM_P2
2024/03/20 00:01:26;;;;;;;71.43;16.15;;;;;;;7.59;100.00;98272.72;5010691;28;20049;-59
2024/03/20 00:03:51;;;;;;;100.85;17.13;;;;;;;7.64;100.00;98271.06;5010586;28;20622;-59
2024/03/20 00:06:18;;;;;;;84.47;15.88;;;;;;;7.71;100.00;98271.16;5011507;28;20041;-65
2024/03/20 00:08:43;;;;;;;61.95;13.40;;;;;;;7.59;100.00;98267.53;5008561;28;20060;-62
2024/03/20 00:11:08;;;;;;;63.80;13.70;;;;;;;7.60;100.00;98273.56;5006097;28;20071;-59
2024/03/20 00:13:34;;;;;;;70.20;14.07;;;;;;;7.48;100.00;98271.69;5010057;28;20033;-63
2024/03/20 00:15:59;;;;;;;104.68;17.05;;;;;;;7.36;100.00;98273.28;5009191;28;20041;-60
2024/03/20 00:18:25;;;;;;;74.03;13.70;;;;;;;7.28;100.00;98262.81;5010146;28;20405;-63
2024/03/20 00:20:50;;;;;;;103.03;15.23;;;;;;;7.28;100.00;98267.13;5008487;28;20243;-65
2024/03/20 00:23:16;;;;;;;76.35;13.43;;;;;;;7.27;100.00;98270.53;5011776;28;20024;-62
2024/03/20 00:25:41;;;;;;;57.67;12.32;;;;;;;7.26;100.00;98263.63;5009433;28;20038;-61
2024/03/20 00:28:06;;;;;;;66.75;13.43;;;;;;;7.33;100.00;98262.88;5010491;28;20057;-63
2024/03/20 00:30:32;;;;;;;58.63;13.43;;;;;;;7.21;100.00;98266.16;5010320;28;20045;-61
2024/03/20 00:32:57;;;;;;;108.00;15.60;;;;;;;7.12;100.00;98264.31;5011369;28;20153;-62
2024/03/20 00:35:22;;;;;;;75.07;14.05;;;;;;;7.14;100.00;98267.81;5010021;28;20069;-61
2024/03/20 00:37:48;;;;;;;68.32;12.18;;;;;;;7.02;100.00;98263.28;5009433;28;20029;-59
2024/03/20 00:40:13;;;;;;;90.13;13.48;;;;;;;6.95;100.00;98260.59;5008882;28;20477;-61
2024/03/20 00:42:39;;;;;;;76.65;13.07;;;;;;;7.01;100.00;98263.25;5010568;28;20042;-61
2024/03/20 00:45:05;;;;;;;92.50;13.80;;;;;;;7.10;100.00;98260.84;5007256;28;20060;-60
2024/03/20 00:47:30;;;;;;;77.20;15.10;;;;;;;7.14;100.00;98269.50;5010559;28;20025;-63
2024/03/20 00:49:55;;;;;;;107.55;15.73;;;;;;;7.01;100.00;98250.31;5009602;28;20480;-60
2024/03/20 00:52:21;;;;;;;88.25;14.10;;;;;;;7.25;100.00;98249.84;5008727;28;20125;-61
2024/03/20 00:54:47;;;;;;;74.90;14.13;;;;;;;7.24;100.00;98247.22;5009105;28;20025;-59
2024/03/20 00:57:13;;;;;;;73.57;14.30;;;;;;;7.28;100.00;98251.59;5007409;28;20041;-61
2024/03/20 00:59:38;;;;;;;70.60;13.05;;;;;;;7.11;100.00;98241.00;5009468;28;20021;-62
2024/03/20 01:02:06;;;;;;;104.10;16.25;;;;;;;7.02;100.00;98234.00;5008024;28;20041;-59
2024/03/20 01:04:32;;;;;;;57.13;12.48;;;;;;;6.88;100.00;98238.94;5011260;28;20230;-61
2024/03/20 01:06:57;;;;;;;89.68;14.02;;;;;;;6.90;100.00;98234.66;5009310;28;20502;-61
2024/03/20 01:09:22;;;;;;;62.15;12.23;;;;;;;6.82;100.00;98234.53;5012018;28;20026;-63
2024/03/20 01:11:48;;;;;;;64.95;12.20;;;;;;;6.72;100.00;98235.25;5009687;28;20040;-65
2024/03/20 01:14:14;;;;;;;79.28;12.82;;;;;;;6.80;100.00;98231.06;5007401;28;20017;-60
2024/03/20 01:16:39;;;;;;;74.63;12.65;;;;;;;6.99;100.00;98231.34;5013894;28;20576;-61
2024/03/20 01:19:04;;;;;;;103.07;14.73;;;;;;;7.05;100.00;98228.00;5013243;28;20255;-60
2024/03/20 01:21:30;;;;;;;55.50;11.85;;;;;;;7.17;100.00;98233.34;5012850;28;20492;-61
2024/03/20 01:23:56;;;;;;;96.07;15.02;;;;;;;6.85;100.00;98233.72;5014246;28;20616;-61
2024/03/20 01:26:22;;;;;;;86.88;13.38;;;;;;;6.62;100.00;98234.22;5013696;28;20029;-62
2024/03/20 01:28:48;;;;;;;51.95;11.80;;;;;;;6.33;100.00;98238.06;5012719;28;20029;-62
2024/03/20 01:31:14;;;;;;;57.90;12.15;;;;;;;6.24;100.00;98237.91;5011141;28;20038;-63
2024/03/20 01:33:39;;;;;;;58.65;13.15;;;;;;;6.33;100.00;98232.00;5014817;28;20079;-62
2024/03/20 01:36:04;;;;;;;85.93;14.23;;;;;;;6.04;100.00;98232.34;5012603;28;20033;-62
2024/03/20 01:38:30;;;;;;;66.72;11.90;;;;;;;6.15;100.00;98238.59;5015168;28;20061;-60
2024/03/20 01:40:55;;;;;;;72.05;12.45;;;;;;;6.25;100.00;98242.22;5013642;28;20140;-61
2024/03/20 01:43:21;;;;;;;66.78;12.82;;;;;;;6.17;100.00;98239.50;5013422;28;21328;-62
2024/03/20 01:45:47;;;;;;;66.28;12.40;;;;;;;6.03;100.00;98238.31;5012257;28;20091;-61
2024/03/20 01:48:13;;;;;;;70.80;12.77;;;;;;;5.90;100.00;98232.91;5010745;28;20080;-61
2024/03/20 01:50:39;;;;;;;65.35;12.38;;;;;;;5.97;100.00;98233.91;5011684;28;20037;-60
2024/03/20 01:53:04;;;;;;;74.43;13.18;;;;;;;6.04;100.00;98235.81;5011221;28;20415;-62
2024/03/20 01:55:30;;;;;;;51.92;11.63;;;;;;;6.14;100.00;98230.81;5012533;28;20040;-62
2024/03/20 01:57:56;;;;;;;64.75;12.27;;;;;;;5.99;100.00;98233.09;5014188;28;20040;-62
2024/03/20 02:00:23;;;;;;;89.50;13.13;;;;;;;6.06;100.00;98230.69;5012505;28;20029;-60
2024/03/20 02:02:50;;;;;;;62.80;12.15;;;;;;;6.04;100.00;98234.91;5012059;28;20026;-61
2024/03/20 02:05:16;;;;;;;61.58;13.55;;;;;;;6.05;100.00;98234.97;5011590;28;20030;-61
2024/03/20 02:07:42;;;;;;;65.30;12.48;;;;;;;6.04;100.00;98235.81;5012350;28;20026;-60
2024/03/20 02:10:08;;;;;;;88.13;13.85;;;;;;;6.17;100.00;98236.03;5012872;28;20358;-60
2024/03/20 02:12:33;;;;;;;56.65;13.63;;;;;;;5.98;100.00;98230.50;5012993;28;20041;-59
2024/03/20 02:15:09;;;;;;;101.32;15.85;;;;;;;6.23;100.00;98229.28;5012876;28;20095;-61
2024/03/20 02:17:40;;;;;;;40.88;13.30;;;;;;;6.58;100.00;98238.50;5014027;28;20393;-62
2024/03/20 02:20:08;;;;;;;106.67;18.37;;;;;;;6.48;100.00;98226.25;5012810;28;20029;-60
2024/03/20 02:22:42;;;;;;;45.10;13.23;;;;;;;6.55;100.00;98222.91;5011832;28;20272;-60
2024/03/20 02:25:09;;;;;;;86.97;15.00;;;;;;;6.45;100.00;98224.47;5012566;28;20068;-60
2024/03/20 02:27:34;;;;;;;53.58;13.40;;;;;;;6.60;100.00;98226.44;5011961;28;20018;-60
2024/03/20 02:30:00;;;;;;;85.00;15.15;;;;;;;6.61;100.00;98225.59;5012615;28;20381;-59
2024/03/20 02:32:25;;;;;;;58.85;16.08;;;;;;;6.50;100.00;98222.84;5012540;28;20149;-60
2024/03/20 02:34:52;;;;;;;44.45;14.90;;;;;;;6.47;100.00;98230.56;5013572;28;20052;-59
2024/03/20 02:37:17;;;;;;;82.13;18.15;;;;;;;6.04;100.00;98225.47;5009463;28;20045;-61
2024/03/20 02:39:43;;;;;;;68.35;14.60;;;;;;;6.33;100.00;98225.13;5011926;28;20107;-60
2024/03/20 02:42:08;;;;;;;99.70;18.48;;;;;;;6.17;100.00;98230.88;5009063;28;20042;-60
2024/03/20 02:44:34;;;;;;;51.15;12.52;;;;;;;6.28;100.00;98229.38;5013379;28;20017;-62
2024/03/20 02:47:00;;;;;;;69.57;14.52;;;;;;;6.20;100.00;98230.94;5011181;28;20049;-59
2024/03/20 02:49:25;;;;;;;56.17;14.88;;;;;;;6.31;100.00;98224.22;5012385;28;20224;-62
2024/03/20 02:51:51;;;;;;;41.53;11.40;;;;;;;6.54;100.00;98226.34;5011592;28;20041;-60
2024/03/20 02:54:16;;;;;;;64.50;14.55;;;;;;;6.55;100.00;98225.50;5011893;28;20487;-60
2024/03/20 02:56:41;;;;;;;69.38;14.35;;;;;;;6.61;100.00;98222.16;5012371;28;20048;-63
2024/03/20 02:59:06;;;;;;;72.15;15.13;;;;;;;6.48;100.00;98231.41;5011328;28;20029;-60
2024/03/20 03:01:32;;;;;;;58.78;14.45;;;;;;;6.36;100.00;98237.25;5008605;28;20049;-61
2024/03/20 03:03:57;;;;;;;80.75;14.75;;;;;;;6.35;100.00;98235.50;5011789;28;20685;-61
2024/03/20 03:06:22;;;;;;;75.72;14.43;;;;;;;6.41;100.00;98237.31;5012708;28;20128;-60
2024/03/20 03:08:48;;;;;;;49.97;13.32;;;;;;;6.55;100.00;98229.78;5013121;28;20029;-60
2024/03/20 03:11:15;;;;;;;92.63;15.07;;;;;;;6.49;100.00;98236.59;5010033;28;20045;-63
2024/03/20 03:13:40;;;;;;;53.97;15.57;;;;;;;6.28;100.00;98237.13;5012941;28;20183;-59
2024/03/20 03:16:13;;;;;;;66.07;16.10;;;;;;;6.24;100.00;98238.75;5009276;28;20037;-59
2024/03/20 03:18:39;;;;;;;55.70;14.43;;;;;;;6.26;100.00;98236.19;5012518;28;20017;-60
2024/03/20 03:21:09;;;;;;;79.13;18.20;;;;;;;6.32;100.00;98230.28;5008778;28;20042;-61
2024/03/20 03:23:34;;;;;;;72.30;15.73;;;;;;;6.18;100.00;98235.19;5010991;28;20022;-60
2024/03/20 03:26:00;;;;;;;70.70;15.50;;;;;;;6.30;100.00;98238.00;5011446;28;20042;-63
2024/03/20 03:28:25;;;;;;;64.10;16.50;;;;;;;6.06;100.00;98238.41;5011353;28;20029;-60
2024/03/20 03:30:50;;;;;;;57.30;16.08;;;;;;;5.98;100.00;98235.66;5010893;28;20506;-62
2024/03/20 03:33:16;;;;;;;90.75;17.85;;;;;;;5.74;100.00;98247.25;5009832;28;20567;-61
2024/03/20 03:35:41;;;;;;;58.17;14.90;;;;;;;5.62;100.00;98247.00;5011240;28;20034;-60
2024/03/20 03:38:06;;;;;;;93.25;18.95;;;;;;;5.84;100.00;98246.59;5008981;28;20026;-60
2024/03/20 03:40:32;;;;;;;54.35;13.65;;;;;;;5.73;100.00;98246.34;5012057;28;20050;-61
2024/03/20 03:42:57;;;;;;;52.33;13.00;;;;;;;6.16;100.00;98244.63;5010014;28;20037;-60
2024/03/20 03:45:22;;;;;;;75.60;16.38;;;;;;;5.94;100.00;98249.38;5008233;28;20021;-60
2024/03/20 03:47:48;;;;;;;59.33;16.00;;;;;;;5.39;100.00;98245.69;5011059;28;20014;-60
2024/03/20 03:50:13;;;;;;;97.28;18.38;;;;;;;5.41;100.00;98245.69;5010826;28;20051;-61
2024/03/20 03:52:39;;;;;;;74.57;15.20;;;;;;;5.47;100.00;98244.09;5008927;28;20017;-62
2024/03/20 03:55:05;;;;;;;76.53;15.52;;;;;;;5.75;100.00;98250.69;5011126;28;20259;-62
2024/03/20 03:57:30;;;;;;;52.42;15.10;;;;;;;6.12;100.00;98256.59;5011197;28;20068;-62
2024/03/20 03:59:55;;;;;;;65.10;16.58;;;;;;;5.88;100.00;98256.97;5011507;28;20152;-61
2024/03/20 04:02:21;;;;;;;73.18;14.23;;;;;;;5.94;100.00;98254.53;5007616;28;20038;-62
2024/03/20 04:04:48;;;;;;;52.67;16.95;;;;;;;5.85;100.00;98256.09;5012179;28;20036;-62
2024/03/20 04:07:13;;;;;;;99.45;16.80;;;;;;;5.82;100.00;98255.13;5007900;28;20179;-60
2024/03/20 04:09:39;;;;;;;50.63;15.50;;;;;;;5.39;100.00;98256.00;5011122;28;20033;-62
2024/03/20 04:12:04;;;;;;;89.20;17.85;;;;;;;5.69;100.00;98257.50;5010264;28;20057;-60
2024/03/20 04:14:29;;;;;;;76.07;16.25;;;;;;;5.85;100.00;98260.38;5008963;28;20080;-61
2024/03/20 04:16:55;;;;;;;57.13;13.80;;;;;;;5.92;100.00;98261.34;5011237;28;20089;-60
2024/03/20 04:19:20;;;;;;;57.15;14.38;;;;;;;6.10;100.00;98255.72;5010878;28;21167;-61
2024/03/20 04:21:45;;;;;;;67.40;15.57;;;;;;;6.02;100.00;98267.56;5009136;28;20041;-61
2024/03/20 04:24:11;;;;;;;98.47;18.92;;;;;;;5.43;100.00;98262.97;5009960;28;20022;-61
2024/03/20 04:26:36;;;;;;;56.53;14.32;;;;;;;5.88;100.00;98263.00;5010085;28;20060;-62
2024/03/20 04:29:01;;;;;;;51.25;14.45;;;;;;;6.09;100.00;98260.00;5010458;28;20120;-62
2024/03/20 04:31:27;;;;;;;59.75;18.33;;;;;;;5.79;100.00;98260.25;5009638;28;20041;-61
2024/03/20 04:33:52;;;;;;;63.38;15.48;;;;;;;5.76;100.00;98262.75;5012044;28;20504;-60
2024/03/20 04:36:17;;;;;;;104.97;20.35;;;;;;;5.93;100.00;98263.09;5009766;28;20390;-60
2024/03/20 04:38:43;;;;;;;57.90;15.75;;;;;;;5.94;100.00;98262.28;5011840;28;20374;-61
2024/03/20 04:41:09;;;;;;;86.00;18.23;;;;;;;6.02;100.00;98260.72;5008253;28;20087;-60
2024/03/20 04:43:34;;;;;;;56.00;16.10;;;;;;;6.08;100.00;98259.97;5008370;28;20327;-61
2024/03/20 04:46:00;;;;;;;66.82;17.02;;;;;;;5.93;100.00;98263.09;5008783;28;20037;-60
2024/03/20 04:48:26;;;;;;;56.83;15.57;;;;;;;6.05;100.00;98270.25;5009733;28;20206;-61
2024/03/20 04:50:52;;;;;;;79.78;17.95;;;;;;;5.97;100.00;98270.94;5009676;28;20049;-61
2024/03/20 04:53:18;;;;;;;121.13;19.08;;;;;;;6.08;100.00;98265.13;5008483;28;20025;-62
2024/03/20 04:55:43;;;;;;;67.00;16.35;;;;;;;5.95;100.00;98270.06;5009762;28;20486;-61
2024/03/20 04:58:09;;;;;;;109.63;20.08;;;;;;;6.11;100.00;98268.66;5008957;28;20099;-60
2024/03/20 05:00:35;;;;;;;48.58;16.98;;;;;;;6.06;100.00;98265.13;5008744;28;20045;-61
2024/03/20 05:03:00;;;;;;;59.83;16.88;;;;;;;6.03;100.00;98259.91;5010543;28;20584;-62
2024/03/20 05:05:25;;;;;;;58.28;16.52;;;;;;;6.09;100.00;98269.47;5010005;28;20065;-60
2024/03/20 05:07:51;;;;;;;59.83;18.23;;;;;;;5.94;100.00;98267.44;5012595;28;20367;-60
2024/03/20 05:10:16;;;;;;;112.88;19.17;;;;;;;6.21;100.00;98264.53;5007651;28;20021;-62
2024/03/20 05:12:42;;;;;;;56.85;17.40;;;;;;;6.14;100.00;98264.38;5009023;28;20420;-62
2024/03/20 05:15:08;;;;;;;82.65;18.30;;;;;;;6.31;100.00;98262.97;5008740;28;20476;-60
2024/03/20 05:17:33;;;;;;;56.85;15.43;;;;;;;6.12;100.00;98275.56;5007990;28;20430;-61
2024/03/20 05:19:59;;;;;;;56.00;17.65;;;;;;;5.86;100.00;98277.59;5008406;28;20083;-61
2024/03/20 05:22:24;;;;;;;69.65;15.68;;;;;;;5.96;100.00;98273.47;5007441;28;20042;-61
2024/03/20 05:24:50;;;;;;;66.57;16.70;;;;;;;6.27;100.00;98270.66;5009861;28;20120;-63
2024/03/20 05:27:16;;;;;;;119.20;17.55;;;;;;;6.47;100.00;98268.44;5007097;28;20045;-63
2024/03/20 05:29:42;;;;;;;54.63;16.02;;;;;;;6.35;100.00;98277.69;5011694;28;20022;-60
2024/03/20 05:32:08;;;;;;;70.07;16.58;;;;;;;6.41;100.00;98274.34;5010048;28;20337;-61
2024/03/20 05:34:33;;;;;;;55.55;13.18;;;;;;;6.61;100.00;98279.88;5011248;28;20025;-61
2024/03/20 05:36:58;;;;;;;55.17;15.77;;;;;;;6.83;100.00;98281.97;5011402;28;20448;-62
2024/03/20 05:39:24;;;;;;;45.25;13.60;;;;;;;7.50;100.00;98282.97;5008823;28;20109;-62
2024/03/20 05:41:49;;;;;;;65.45;14.65;;;;;;;8.13;100.00;98280.25;5009228;28;20128;-60
2024/03/20 05:44:17;;;;;;;100.47;16.85;;;;;;;7.73;100.00;98287.56;5008866;28;20040;-62
2024/03/20 05:46:44;;;;;;;53.67;14.85;;;;;;;8.04;100.00;98299.19;5011686;28;20148;-62
2024/03/20 05:49:10;;;;;;;80.28;16.13;;;;;;;8.33;100.00;98306.41;5009584;28;20136;-62
2024/03/20 05:51:35;;;;;;;55.03;14.82;;;;;;;8.50;100.00;98315.22;5011589;28;20067;-63
2024/03/20 05:54:01;;;;;;;49.05;13.50;;;;;;;8.59;100.00;98320.53;5009779;28;20060;-61
2024/03/20 05:56:26;;;;;;;70.85;14.63;;;;;;;8.44;100.00;98322.09;5004856;28;20072;-62
2024/03/20 05:58:52;;;;;;;60.10;13.40;;;;;;;7.95;100.00;98318.06;5010431;28;20080;-62
2024/03/20 06:01:17;;;;;;;102.40;20.27;;;;;;;8.94;100.00;98322.56;5008939;28;20120;-61
2024/03/20 06:03:42;;;;;;;65.85;15.35;;;;;;;9.57;100.00;98330.84;5013746;28;20089;-61
2024/03/20 06:06:08;;;;;;;57.72;16.50;;;;;;;8.91;100.00;98340.69;5011771;28;20634;-62
2024/03/20 06:08:33;;;;;;;40.97;12.93;;;;;;;9.63;100.00;98336.03;5015197;28;20388;-63
2024/03/20 06:11:01;;;;;;;71.88;13.52;;;;;;;9.93;100.00;98342.28;5011278;28;20104;-63
2024/03/20 06:13:27;;;;;;;58.60;15.80;;;;;;;10.08;100.00;98341.47;5015132;28;20037;-61
2024/03/20 06:15:52;;;;;;;61.15;14.25;;;;;;;10.63;100.00;98333.88;5015286;28;20418;-60
2024/03/20 06:18:18;;;;;;;81.45;14.60;;;;;;;12.33;100.00;98339.72;5013880;28;20564;-61
2024/03/20 06:20:43;;;;;;;53.92;14.93;;;;;;;12.27;100.00;98341.50;5013473;28;20037;-62
2024/03/20 06:23:08;;;;;;;53.00;14.40;;;;;;;13.16;100.00;98339.22;5015415;28;20032;-61
2024/03/20 06:25:35;;;;;;;62.00;14.98;;;;;;;14.78;100.00;98347.03;5015985;28;20045;-61
2024/03/20 06:28:00;;;;;;;41.83;14.93;;;;;;;14.81;100.00;98337.38;5014971;28;20022;-61
2024/03/20 06:30:26;;;;;;;76.43;15.80;;;;;;;15.57;100.00;98337.03;5012575;28;20033;-61
2024/03/20 06:32:52;;;;;;;59.28;14.57;;;;;;;16.25;100.00;98327.00;5012721;28;20112;-62
2024/03/20 06:35:17;;;;;;;67.70;20.55;;;;;;;15.85;100.00;98312.91;5010052;28;20077;-62
2024/03/20 06:37:43;;;;;;;43.88;9.52;;;;;;;16.35;100.00;98277.81;5014335;28;20326;-64
2024/03/20 06:40:11;;;;;;;44.00;9.80;;;;;;;16.90;100.00;98288.78;5012127;28;20087;-63
2024/03/20 06:42:37;;;;;;;49.28;10.20;;;;;;;16.92;100.00;98289.59;5014330;28;20575;-61
2024/03/20 06:45:04;;;;;;;43.78;9.88;;;;;;;17.29;96.96;98293.09;5014004;28;20031;-61
2024/03/20 06:47:29;;;;;;;60.85;12.10;;;;;;;17.67;90.69;98292.13;5011886;28;20136;-61
2024/03/20 06:49:55;;;;;;;48.35;10.90;;;;;;;19.25;75.50;98290.91;5014911;28;20182;-62
2024/03/20 06:52:22;;;;;;;63.47;11.60;;;;;;;19.25;75.50;98290.91;5010874;28;20057;-63
2024/03/20 06:54:49;;;;;;;46.08;9.95;;;;;;;20.14;64.19;98285.16;5015619;28;20098;-62
2024/03/20 06:57:14;;;;;;;40.75;9.63;;;;;;;22.03;52.50;98296.84;5012057;28;20664;-62
2024/03/20 06:59:40;;;;;;;44.10;10.75;;;;;;;22.43;49.24;98295.94;5013264;28;20148;-63
2024/03/20 07:02:06;;;;;;;40.15;12.63;;;;;;;22.59;48.53;98298.75;5013292;28;20045;-63
2024/03/20 07:04:32;;;;;;;36.67;12.10;;;;;;;22.06;52.72;98303.81;5014660;28;20017;-62
2024/03/20 07:06:58;;;;;;;35.22;11.38;;;;;;;21.72;47.11;98303.50;5010414;28;20049;-63
2024/03/20 07:09:25;;;;;;;57.15;13.00;;;;;;;23.60;44.52;98295.59;5010844;28;20057;-62
2024/03/20 07:11:50;;;;;;;39.72;12.35;;;;;;;25.83;43.38;98299.19;5014207;28;20025;-65
2024/03/20 07:14:17;;;;;;;48.70;12.18;;;;;;;24.75;39.85;98300.03;5012092;28;20048;-63
2024/03/20 07:16:43;;;;;;;40.28;11.75;;;;;;;26.12;39.60;98302.69;5014323;28;20518;-65
2024/03/20 07:19:09;;;;;;;42.13;10.90;;;;;;;27.05;35.29;98297.75;5013379;28;20087;-64
2024/03/20 07:21:35;;;;;;;48.35;10.55;;;;;;;25.39;36.73;98298.22;5012114;28;20041;-65
2024/03/20 07:24:02;;;;;;;40.63;10.43;;;;;;;23.43;38.48;98294.69;5013656;28;20026;-66
2024/03/20 07:26:29;;;;;;;49.22;11.75;;;;;;;26.70;36.47;98292.91;5014544;28;20088;-65
2024/03/20 07:28:54;;;;;;;43.03;10.40;;;;;;;28.35;33.44;98287.13;5015180;28;20056;-64
2024/03/20 07:31:20;;;;;;;48.00;10.85;;;;;;;28.68;32.49;98282.97;5012077;28;20634;-63
2024/03/20 07:33:45;;;;;;;28.42;8.38;;;;;;;25.31;35.28;98291.53;5013143;28;20587;-62
2024/03/20 07:36:11;;;;;;;46.42;11.38;;;;;;;27.39;34.43;98292.78;5011720;28;20187;-62
2024/03/20 07:38:36;;;;;;;31.73;10.18;;;;;;;27.43;33.92;98288.13;5013055;28;20408;-64
2024/03/20 07:41:02;;;;;;;29.90;9.85;;;;;;;27.92;33.45;98278.53;5011806;28;20041;-63
2024/03/20 07:43:27;;;;;;;47.08;11.63;;;;;;;30.42;31.08;98285.94;5012408;28;20176;-65
2024/03/20 07:45:52;;;;;;;36.10;10.00;;;;;;;30.91;29.72;98286.41;5012045;28;20152;-66
2024/03/20 07:48:17;;;;;;;48.65;11.60;;;;;;;28.59;31.00;98284.50;5014036;28;20036;-67
2024/03/20 07:50:43;;;;;;;46.60;12.02;;;;;;;28.63;32.43;98284.25;5012306;28;20140;-66
2024/03/20 07:53:09;;;;;;;36.88;10.32;;;;;;;30.12;29.76;98291.81;5013141;28;20118;-64
2024/03/20 07:55:34;;;;;;;33.88;10.43;;;;;;;31.03;29.36;98289.91;5012541;28;20509;-66
2024/03/20 07:58:00;;;;;;;42.40;11.70;;;;;;;30.52;29.75;98282.38;5012189;28;20044;-62
2024/03/20 08:00:28;;;;;;;45.40;11.85;;;;;;;30.25;30.20;98294.34;5010688;28;20033;-64
2024/03/20 08:02:56;;;;;;;41.28;12.00;;;;;;;29.54;30.63;98291.84;5012358;28;20484;-62
2024/03/20 08:05:27;;;;;;;50.17;11.93;;;;;;;30.66;29.68;98293.78;5011244;28;20025;-64
2024/03/20 08:07:53;;;;;;;38.05;10.85;;;;;;;29.26;31.23;98289.44;5014074;28;20042;-65
2024/03/20 08:10:18;;;;;;;56.58;12.95;;;;;;;27.28;32.88;98285.50;5010629;28;20065;-64
2024/03/20 08:12:44;;;;;;;33.17;11.25;;;;;;;28.16;33.51;98285.75;5011197;28;20360;-63
2024/03/20 08:15:10;;;;;;;38.33;11.80;;;;;;;29.22;31.24;98282.59;5010664;28;20041;-63
2024/03/20 08:17:37;;;;;;;43.75;12.60;;;;;;;27.24;33.62;98296.53;5010705;28;20029;-64
2024/03/20 08:20:03;;;;;;;41.70;11.95;;;;;;;27.24;33.62;98296.53;5012736;28;20033;-65
2024/03/20 08:22:29;;;;;;;55.28;13.95;;;;;;;28.23;32.83;98290.66;5010016;28;20029;-64
2024/03/20 08:24:55;;;;;;;54.67;13.60;;;;;;;28.54;32.09;98288.47;5010711;28;20017;-63
2024/03/20 08:27:25;;;;;;;58.22;12.70;;;;;;;27.25;33.32;98291.09;5011221;28;20048;-63
2024/03/20 08:29:51;;;;;;;44.67;11.50;;;;;;;29.40;31.01;98290.19;5012817;28;20477;-63
2024/03/20 08:32:17;;;;;;;58.67;14.30;;;;;;;29.33;31.27;98285.31;5010338;28;20075;-61
2024/03/20 08:34:43;;;;;;;40.10;13.75;;;;;;;31.03;30.76;98285.38;5015115;28;20025;-62
2024/03/20 08:37:08;;;;;;;42.88;11.10;;;;;;;31.03;30.76;98285.38;5010767;28;20042;-64
2024/03/20 08:39:34;;;;;;;41.60;11.75;;;;;;;31.03;30.76;98285.38;5011351;28;20060;-65
2024/03/20 08:41:59;;;;;;;35.60;11.30;;;;;;;29.18;31.84;98282.00;5012767;28;20467;-64
2024/03/20 08:44:24;;;;;;;56.80;13.43;;;;;;;31.47;31.70;98287.13;5011029;28;21045;-63
2024/03/20 08:46:50;;;;;;;50.35;12.30;;;;;;;165.90;31.69;98287.59;5010093;28;20037;-63
2024/03/20 08:49:15;;;;;;;60.17;12.75;;;;;;;-148.24;100.00;61531.34;5010709;28;20030;-63
2024/03/20 08:51:40;;;;;;;51.55;11.68;;;;;;;-148.24;100.00;61531.34;5010586;28;20065;-65
2024/03/20 08:54:07;;;;;;;38.47;11.00;;;;;;;106.92;100.00;61531.34;5012466;28;20043;-63
2024/03/20 08:56:32;;;;;;;55.00;12.48;;;;;;;-148.24;100.00;61531.34;5012682;28;20045;-63
2024/03/20 08:58:57;;;;;;;53.33;11.60;;;;;;;-148.24;100.00;61531.34;5011885;28;20112;-63
2024/03/20 09:01:23;;;;;;;63.95;13.15;;;;;;;-148.24;100.00;61531.34;5011937;28;20135;-64
2024/03/20 09:03:48;;;;;;;43.65;12.13;;;;;;;-148.24;100.00;61531.34;5011155;28;20026;-65
2024/03/20 09:06:13;;;;;;;60.75;12.30;;;;;;;-148.24;100.00;61531.34;5009189;28;20041;-64
2024/03/20 09:08:39;;;;;;;45.80;12.05;;;;;;;-148.24;100.00;61531.34;5009924;28;20473;-62
2024/03/20 09:11:04;;;;;;;47.38;11.15;;;;;;;-148.24;100.00;61531.34;5010948;28;20044;-63
2024/03/20 09:13:31;;;;;;;75.97;12.43;;;;;;;-148.24;100.00;61531.34;5010189;28;20449;-65
2024/03/20 09:15:56;;;;;;;49.50;11.27;;;;;;;-148.24;100.00;61531.34;5010434;28;20040;-64
2024/03/20 09:18:22;;;;;;;59.05;11.40;;;;;;;-148.24;100.00;61531.34;5011863;28;20021;-63
2024/03/20 09:20:51;;;;;;;55.63;10.70;;;;;;;-148.24;100.00;61531.34;5010890;28;20092;-64
2024/03/20 09:23:16;;;;;;;67.18;11.40;;;;;;;-148.24;100.00;61531.34;5009135;28;20030;-65
2024/03/20 09:25:41;;;;;;;49.88;10.07;;;;;;;-148.24;100.00;61531.34;5011412;28;20042;-64
2024/03/20 09:28:07;;;;;;;50.97;9.95;;;;;;;-148.24;100.00;61531.34;5009787;28;20314;-61
2024/03/20 09:30:32;;;;;;;41.50;9.93;;;;;;;-148.24;100.00;61531.34;5010278;28;20034;-64
2024/03/20 09:32:57;;;;;;;47.28;10.23;;;;;;;-148.24;100.00;61531.34;5010510;28;20034;-62
2024/03/20 09:35:23;;;;;;;66.57;12.18;;;;;;;-148.24;100.00;61531.34;5011397;28;20290;-64
2024/03/20 09:37:48;;;;;;;49.45;10.38;;;;;;;-148.24;100.00;61531.34;5014771;28;20026;-67
2024/03/20 09:40:21;;;;;;;64.45;10.63;;;;;;;-148.24;100.00;61531.34;5014197;28;20035;-64
2024/03/20 09:42:47;;;;;;;46.30;9.52;;;;;;;-148.24;100.00;61531.34;5015974;28;20018;-65
2024/03/20 09:45:13;;;;;;;43.97;9.82;;;;;;;-148.24;100.00;61531.34;5014744;28;20029;-65
2024/03/20 09:47:39;;;;;;;47.22;9.65;;;;;;;-148.24;100.00;61531.34;5014596;28;20549;-64
2024/03/20 09:50:12;;;;;;;49.63;11.23;;;;;;;-148.24;100.00;61531.34;5015574;28;20611;-63
2024/03/20 09:52:37;;;;;;;40.15;7.85;;;;;;;-148.24;100.00;61531.34;5007824;28;20041;-63
2024/03/20 09:55:06;;;;;;;36.72;8.70;;;;;;;-148.24;100.00;61531.34;5017188;28;20030;-66
2024/03/20 09:57:33;;;;;;;48.22;8.70;;;;;;;-148.24;100.00;61531.34;5013289;28;20045;-62
2024/03/20 09:59:58;;;;;;;50.13;9.75;;;;;;;-148.24;100.00;61531.34;5014921;28;20383;-64
2024/03/20 10:02:26;;;;;;;65.65;10.98;;;;;;;-148.24;100.00;61531.34;5013309;28;20067;-62
2024/03/20 10:04:53;;;;;;;45.05;14.10;;;;;;;-148.24;100.00;61531.34;5014002;28;20021;-64
2024/03/20 10:07:18;;;;;;;105.10;44.67;;;;;;;-148.24;100.00;61531.34;5013514;28;20583;-63
2024/03/20 10:09:47;;;;;;;78.13;38.70;;;;;;;-148.24;100.00;61531.34;5014997;28;20025;-63
2024/03/20 10:12:15;;;;;;;66.05;16.45;;;;;;;-148.24;100.00;61531.34;5012651;28;20038;-64
2024/03/20 10:14:41;;;;;;;69.88;31.40;;;;;;;-148.24;100.00;61531.34;5014817;28;20458;-62
2024/03/20 10:17:17;;;;;;;68.80;32.75;;;;;;;-148.24;100.00;61531.34;5014754;28;20064;-63
2024/03/20 10:19:44;;;;;;;57.03;15.13;;;;;;;-148.24;100.00;61531.34;5013606;28;20021;-64
2024/03/20 10:22:11;;;;;;;57.03;16.70;;;;;;;-148.24;100.00;61531.34;5014189;28;20099;-61
2024/03/20 10:24:37;;;;;;;72.32;31.55;;;;;;;-148.24;100.00;61531.34;5013791;28;20014;-62
2024/03/20 10:27:04;;;;;;;74.60;24.65;;;;;;;-148.24;100.00;61531.34;5011001;28;20036;-61
2024/03/20 10:29:30;;;;;;;173.00;124.03;;;;;;;-148.24;100.00;61531.34;5012371;28;20161;-63
2024/03/20 10:31:57;;;;;;;65.05;16.08;;;;;;;-148.24;100.00;61531.34;5012474;28;20041;-63
2024/03/20 10:34:24;;;;;;;66.32;12.20;;;;;;;-148.24;100.00;61531.34;5012352;28;20033;-64
2024/03/20 10:36:50;;;;;;;47.33;8.77;;;;;;;-148.24;100.00;61531.34;5013461;28;20042;-62
2024/03/20 10:39:17;;;;;;;58.78;9.63;;;;;;;-148.24;100.00;61531.34;5015515;28;20021;-65
2024/03/20 10:41:49;;;;;;;40.25;8.73;;;;;;;-148.24;100.00;61531.34;5014134;28;20420;-63
2024/03/20 10:44:16;;;;;;;51.72;9.98;;;;;;;-148.24;100.00;61531.34;5015034;28;20025;-62
2024/03/20 10:46:53;;;;;;;45.03;8.45;;;;;;;-148.24;100.00;61531.34;5012400;28;20160;-65
2024/03/20 10:49:23;;;;;;;56.08;9.65;;;;;;;-148.24;100.00;61531.34;5012675;28;20033;-63
2024/03/20 10:51:50;;;;;;;68.22;10.02;;;;;;;-148.24;100.00;61531.34;5014168;28;20040;-63
2024/03/20 10:54:17;;;;;;;47.30;8.45;;;;;;;-148.24;100.00;61531.34;5014854;28;20060;-63
2024/03/20 10:56:50;;;;;;;49.17;8.52;;;;;;;-148.24;100.00;61531.34;5013634;28;20080;-63
2024/03/20 10:59:20;;;;;;;48.58;8.90;;;;;;;-148.24;100.00;61531.34;5015251;28;20036;-63
2024/03/20 11:02:06;;;;;;;35.90;8.20;;;;;;;-148.24;100.00;61531.34;5011839;28;20030;-64
2024/03/20 11:04:41;;;;;;;71.10;9.88;;;;;;;-148.24;100.00;61531.34;5014803;28;20028;-63
2024/03/20 11:07:26;;;;;;;37.95;8.02;;;;;;;-148.24;100.00;61531.34;5013955;28;20037;-65